createdAt,value
2018-09-23T00:00:56.607Z,79.60
2018-09-23T00:03:25.067Z,80.51
2018-09-23T00:05:53.617Z,79.99
2018-09-23T00:08:22.514Z,80.73
2018-09-23T00:10:50.849Z,80.01
2018-09-23T00:13:19.105Z,80.13
2018-09-23T00:15:47.341Z,80.53
2018-09-23T00:18:15.821Z,80.51
2018-09-23T00:20:44.078Z,80.43
2018-09-23T00:23:12.402Z,79.64
2018-09-23T00:25:40.752Z,79.76
2018-09-23T00:28:09.061Z,79.56
2018-09-23T00:30:37.438Z,80.00
2018-09-23T00:33:05.721Z,79.95
2018-09-23T00:35:34.021Z,79.68
2018-09-23T00:38:02.333Z,80.06
2018-09-23T00:40:30.631Z,80.61
2018-09-23T00:42:58.877Z,79.72
2018-09-23T00:45:27.176Z,79.80
2018-09-23T00:47:55.561Z,80.41
2018-09-23T00:50:23.871Z,80.72
2018-09-23T00:52:52.105Z,80.54
2018-09-23T00:55:20.424Z,80.49
2018-09-23T00:57:48.810Z,80.25
2018-09-23T01:00:17.201Z,79.68
2018-09-23T01:02:45.516Z,80.28
2018-09-23T01:05:14.075Z,79.93
2018-09-23T01:07:42.326Z,80.27
2018-09-23T01:10:10.625Z,80.58
2018-09-23T01:12:38.925Z,80.25
2018-09-23T01:15:07.301Z,80.49
2018-09-23T01:17:35.601Z,80.58
2018-09-23T01:20:03.961Z,80.08
2018-09-23T01:22:32.267Z,80.79
2018-09-23T01:25:00.590Z,80.49
2018-09-23T01:27:28.926Z,81.15
2018-09-23T01:29:57.313Z,81.52
2018-09-23T01:32:25.598Z,80.71
2018-09-23T01:34:53.853Z,80.59
2018-09-23T01:37:22.179Z,80.57
2018-09-23T01:39:50.574Z,80.38
2018-09-23T01:42:18.908Z,80.39
2018-09-23T01:44:47.159Z,80.19
2018-09-23T01:47:15.476Z,80.51
2018-09-23T01:49:43.757Z,80.31
2018-09-23T01:52:12.034Z,80.38
2018-09-23T01:54:40.473Z,81.22
2018-09-23T01:57:08.785Z,80.65
2018-09-23T01:59:37.090Z,80.24
2018-09-23T02:02:05.476Z,80.41
2018-09-23T02:04:33.822Z,80.96
2018-09-23T02:07:02.197Z,80.32
2018-09-23T02:09:30.519Z,79.82
2018-09-23T02:11:58.777Z,80.55
2018-09-23T02:14:27.049Z,79.97
2018-09-23T02:16:55.312Z,80.92
2018-09-23T02:19:23.623Z,80.52
2018-09-23T02:21:52.027Z,80.50
2018-09-23T02:24:20.341Z,81.04
2018-09-23T02:26:48.628Z,80.93
2018-09-23T02:29:16.886Z,80.20
2018-09-23T02:31:45.246Z,80.47
2018-09-23T02:34:13.589Z,80.50
2018-09-23T02:36:41.946Z,81.11
2018-09-23T02:39:11.193Z,80.68
2018-09-23T02:41:39.501Z,81.13
2018-09-23T02:44:07.744Z,80.34
2018-09-23T02:46:36.049Z,80.64
2018-09-23T02:49:04.414Z,80.60
2018-09-23T02:51:32.767Z,80.36
2018-09-23T02:54:01.118Z,80.21
2018-09-23T02:56:29.360Z,80.34
2018-09-23T02:58:57.728Z,81.00
2018-09-23T03:01:26.113Z,80.29
2018-09-23T03:03:54.455Z,80.62
2018-09-23T03:06:22.784Z,80.04
2018-09-23T03:08:51.041Z,80.69
2018-09-23T03:11:19.354Z,80.17
2018-09-23T03:13:47.699Z,80.33
2018-09-23T03:16:16.009Z,80.63
2018-09-23T03:18:44.282Z,80.93
2018-09-23T03:21:12.542Z,80.54
2018-09-23T03:23:40.822Z,80.76
2018-09-23T03:26:09.178Z,80.06
2018-09-23T03:28:37.520Z,80.06
2018-09-23T03:31:05.873Z,80.83
2018-09-23T03:33:34.138Z,80.19
2018-09-23T03:36:02.420Z,80.77
2018-09-23T03:38:30.786Z,80.17
2018-09-23T03:40:59.199Z,80.16
2018-09-23T03:43:27.488Z,80.81
2018-09-23T03:45:55.821Z,80.71
2018-09-23T03:48:24.099Z,80.69
2018-09-23T03:50:52.387Z,81.10
2018-09-23T03:53:20.793Z,80.90
2018-09-23T03:55:49.098Z,80.61
2018-09-23T03:58:17.371Z,80.63
2018-09-23T04:00:45.740Z,81.35
2018-09-23T04:03:14.058Z,80.96
2018-09-23T04:05:42.366Z,80.50
2018-09-23T04:08:10.692Z,80.73
2018-09-23T04:10:39.033Z,81.17
2018-09-23T04:13:07.339Z,81.15
2018-09-23T04:15:35.633Z,81.35
2018-09-23T04:18:03.929Z,81.33
2018-09-23T04:20:32.242Z,80.75
2018-09-23T04:23:00.562Z,81.26
2018-09-23T04:25:28.845Z,81.13
2018-09-23T04:27:57.173Z,80.37
2018-09-23T04:30:25.554Z,81.19
2018-09-23T04:32:53.937Z,79.82
2018-09-23T04:35:22.313Z,80.02
2018-09-23T04:37:50.702Z,79.91
2018-09-23T04:40:19.011Z,80.80
2018-09-23T04:42:47.257Z,81.07
2018-09-23T04:45:15.599Z,80.24
2018-09-23T04:47:43.902Z,80.18
2018-09-23T04:50:12.295Z,80.46
2018-09-23T04:52:40.545Z,80.28
2018-09-23T04:55:08.919Z,80.51
2018-09-23T04:57:37.214Z,79.98
2018-09-23T05:00:05.771Z,80.54
2018-09-23T05:02:34.129Z,79.99
2018-09-23T05:05:02.787Z,80.00
2018-09-23T05:07:31.159Z,80.65
2018-09-23T05:09:59.513Z,80.65
2018-09-23T05:12:27.924Z,81.29
2018-09-23T05:14:56.275Z,81.23
2018-09-23T05:17:24.590Z,81.11
2018-09-23T05:19:52.944Z,80.67
2018-09-23T05:22:21.282Z,80.78
2018-09-23T05:24:49.613Z,81.03
2018-09-23T05:27:18.054Z,80.78
2018-09-23T05:29:46.409Z,81.30
2018-09-23T05:32:14.809Z,80.63
2018-09-23T05:34:43.075Z,80.41
2018-09-23T05:37:11.886Z,80.41
2018-09-23T05:39:40.715Z,80.71
2018-09-23T05:42:09.107Z,81.21
2018-09-23T05:44:38.890Z,81.08
2018-09-23T05:47:07.199Z,80.72
2018-09-23T05:49:35.923Z,81.26
2018-09-23T05:52:04.229Z,81.59
2018-09-23T05:54:32.831Z,81.64
2018-09-23T05:57:01.219Z,81.25
2018-09-23T05:59:36.124Z,81.37
2018-09-23T06:02:04.528Z,81.95
2018-09-23T06:04:32.890Z,81.25
2018-09-23T06:07:01.218Z,80.76
2018-09-23T06:09:29.539Z,81.01
2018-09-23T06:11:57.856Z,81.13
2018-09-23T06:14:26.213Z,81.08
2018-09-23T06:16:54.554Z,81.25
2018-09-23T06:19:22.958Z,80.77
2018-09-23T06:21:52.137Z,81.45
2018-09-23T06:24:20.426Z,81.59
2018-09-23T06:26:48.861Z,80.30
2018-09-23T06:29:17.169Z,80.93
2018-09-23T06:31:45.493Z,80.81
2018-09-23T06:34:13.833Z,80.61
2018-09-23T06:36:42.169Z,80.93
2018-09-23T06:39:11.149Z,81.08
2018-09-23T06:41:39.478Z,81.20
2018-09-23T06:44:07.889Z,82.24
2018-09-23T06:46:36.238Z,81.57
2018-09-23T06:49:04.703Z,81.32
2018-09-23T06:51:33.042Z,81.94
2018-09-23T06:54:01.335Z,81.11
2018-09-23T06:56:29.755Z,81.82
2018-09-23T06:58:58.238Z,81.50
2018-09-23T07:01:26.637Z,81.35
2018-09-23T07:03:54.957Z,80.75
2018-09-23T07:06:23.262Z,81.28
2018-09-23T07:08:51.707Z,80.94
2018-09-23T07:11:20.039Z,80.91
2018-09-23T07:13:48.391Z,81.93
2018-09-23T07:16:16.725Z,82.00
2018-09-23T07:18:45.044Z,81.07
2018-09-23T07:21:13.322Z,81.67
2018-09-23T07:23:41.741Z,81.21
2018-09-23T07:26:09.978Z,80.92
2018-09-23T07:28:38.254Z,81.61
2018-09-23T07:31:07.115Z,81.54
2018-09-23T07:33:35.395Z,81.49
2018-09-23T07:36:03.717Z,81.89
2018-09-23T07:38:32.198Z,81.44
2018-09-23T07:41:00.487Z,81.80
2018-09-23T07:43:28.857Z,81.76
2018-09-23T07:45:57.189Z,81.38
2018-09-23T07:48:25.623Z,82.08
2018-09-23T07:50:53.936Z,81.63
2018-09-23T07:53:22.313Z,81.13
2018-09-23T07:55:50.648Z,81.09
2018-09-23T07:58:18.961Z,81.47
2018-09-23T08:00:47.281Z,82.18
2018-09-23T08:03:15.712Z,82.28
2018-09-23T08:05:43.983Z,82.09
2018-09-23T08:08:12.335Z,81.58
2018-09-23T08:10:40.683Z,81.69
2018-09-23T08:13:09.153Z,81.85
2018-09-23T08:15:37.307Z,81.48
2018-09-23T08:18:05.889Z,81.80
2018-09-23T08:20:34.319Z,81.68
2018-09-23T08:23:02.903Z,81.84
2018-09-23T08:25:31.273Z,81.89
2018-09-23T08:27:59.721Z,82.14
2018-09-23T08:30:28.050Z,81.20
2018-09-23T08:32:56.402Z,81.22
2018-09-23T08:35:24.667Z,82.30
2018-09-23T08:37:52.964Z,81.22
2018-09-23T08:40:21.282Z,82.05
2018-09-23T08:42:49.663Z,82.53
2018-09-23T08:45:17.887Z,82.15
2018-09-23T08:47:46.306Z,81.79
2018-09-23T08:50:14.550Z,81.74
2018-09-23T08:52:42.881Z,82.18
2018-09-23T08:55:11.186Z,81.82
2018-09-23T08:57:39.510Z,81.90
2018-09-23T09:00:08.334Z,81.73
2018-09-23T09:02:36.662Z,82.42
2018-09-23T09:05:05.624Z,82.60
2018-09-23T09:07:33.951Z,82.34
2018-09-23T09:10:02.286Z,82.55
2018-09-23T09:12:30.676Z,82.01
2018-09-23T09:14:58.989Z,81.71
2018-09-23T09:17:27.354Z,82.07
2018-09-23T09:19:55.706Z,81.94
2018-09-23T09:22:24.070Z,81.03
2018-09-23T09:24:52.419Z,81.36
2018-09-23T09:27:20.754Z,81.99
2018-09-23T09:29:49.122Z,81.86
2018-09-23T09:32:17.463Z,81.83
2018-09-23T09:34:45.737Z,81.65
2018-09-23T09:37:14.154Z,82.82
2018-09-23T09:39:42.444Z,82.61
2018-09-23T09:42:10.828Z,82.58
2018-09-23T09:44:39.272Z,82.62
2018-09-23T09:47:07.653Z,82.76
2018-09-23T09:49:35.935Z,81.99
2018-09-23T09:52:04.307Z,81.69
2018-09-23T09:54:32.644Z,81.83
2018-09-23T09:57:01.030Z,81.76
2018-09-23T09:59:30.065Z,81.64
2018-09-23T10:01:58.398Z,82.07
2018-09-23T10:04:26.760Z,82.14
2018-09-23T10:06:55.051Z,82.76
2018-09-23T10:09:24.192Z,82.70
2018-09-23T10:11:52.493Z,82.31
2018-09-23T10:14:20.837Z,82.40
2018-09-23T10:16:49.225Z,83.01
2018-09-23T10:19:17.625Z,83.10
2018-09-23T10:21:46.038Z,82.55
2018-09-23T10:24:14.464Z,82.38
2018-09-23T10:26:43.138Z,81.36
2018-09-23T10:29:11.625Z,81.51
2018-09-23T10:31:40.005Z,81.46
2018-09-23T10:34:08.289Z,82.38
2018-09-23T10:36:37.107Z,81.40
2018-09-23T10:39:08.124Z,82.35
2018-09-23T10:41:36.526Z,81.68
2018-09-23T10:44:05.232Z,82.75
2018-09-23T10:46:33.549Z,82.02
2018-09-23T10:49:02.109Z,82.85
2018-09-23T10:51:30.510Z,82.56
2018-09-23T10:53:58.832Z,83.32
2018-09-23T10:56:27.177Z,83.49
2018-09-23T10:58:55.545Z,83.10
2018-09-23T11:01:24.135Z,83.37
2018-09-23T11:03:52.610Z,83.63
2018-09-23T11:06:20.812Z,83.83
2018-09-23T11:08:49.205Z,84.04
2018-09-23T11:11:17.682Z,83.55
2018-09-23T11:13:45.978Z,83.45
2018-09-23T11:16:14.399Z,83.62
2018-09-23T11:18:42.818Z,83.41
2018-09-23T11:21:11.169Z,83.48
2018-09-23T11:23:39.547Z,82.98
2018-09-23T11:26:07.903Z,83.73
2018-09-23T11:28:36.189Z,83.30
2018-09-23T11:31:04.563Z,82.93
2018-09-23T11:33:32.866Z,83.89
2018-09-23T11:36:01.793Z,83.92
2018-09-23T11:38:30.139Z,82.99
2018-09-23T11:40:58.607Z,82.88
2018-09-23T11:43:26.889Z,83.45
2018-09-23T11:45:55.280Z,82.98
2018-09-23T11:48:23.628Z,81.72
2018-09-23T11:50:52.021Z,81.52
2018-09-23T11:53:20.350Z,81.58
2018-09-23T11:55:48.748Z,82.54
2018-09-23T11:58:17.186Z,82.71
2018-09-23T12:00:45.531Z,82.31
2018-09-23T12:03:13.793Z,81.88
2018-09-23T12:05:42.131Z,82.05
2018-09-23T12:08:10.470Z,82.75
2018-09-23T12:10:38.930Z,82.79
2018-09-23T12:13:07.251Z,83.77
2018-09-23T12:15:35.754Z,83.26
2018-09-23T12:18:04.821Z,83.09
2018-09-23T12:20:33.071Z,83.47
2018-09-23T12:23:01.437Z,82.65
2018-09-23T12:25:29.721Z,82.40
2018-09-23T12:27:57.999Z,82.21
2018-09-23T12:30:26.387Z,82.67
2018-09-23T12:32:54.737Z,82.42
2018-09-23T12:35:23.042Z,81.82
2018-09-23T12:37:51.368Z,82.97
2018-09-23T12:40:19.848Z,81.53
2018-09-23T12:42:48.186Z,81.65
2018-09-23T12:45:16.450Z,82.69
2018-09-23T12:47:44.820Z,82.22
2018-09-23T12:50:13.144Z,82.33
2018-09-23T12:52:41.493Z,81.52
2018-09-23T12:55:10.041Z,82.93
2018-09-23T12:57:38.608Z,83.20
2018-09-23T13:00:07.125Z,82.59
2018-09-23T13:02:35.530Z,82.58
2018-09-23T13:05:04.083Z,81.10
2018-09-23T13:07:32.585Z,82.02
2018-09-23T13:10:00.989Z,82.43
2018-09-23T13:12:29.454Z,81.45
2018-09-23T13:14:57.997Z,81.07
2018-09-23T13:17:26.370Z,80.91
2018-09-23T13:19:54.702Z,81.33
2018-09-23T13:22:23.105Z,80.45
2018-09-23T13:24:51.467Z,81.29
2018-09-23T13:27:19.773Z,80.84
2018-09-23T13:29:48.072Z,80.99
2018-09-23T13:32:16.489Z,80.23
2018-09-23T13:34:44.836Z,81.02
2018-09-23T13:37:13.174Z,81.00
2018-09-23T13:39:42.800Z,81.09
2018-09-23T13:42:11.168Z,80.35
2018-09-23T13:44:39.481Z,80.64
2018-09-23T13:47:07.887Z,81.01
2018-09-23T13:49:36.218Z,79.85
2018-09-23T13:52:04.694Z,80.02
2018-09-23T13:54:33.043Z,79.77
2018-09-23T13:57:01.383Z,79.72
2018-09-23T13:59:29.758Z,79.82
2018-09-23T14:01:58.131Z,79.94
2018-09-23T14:04:26.432Z,79.70
2018-09-23T14:06:54.753Z,79.73
2018-09-23T14:09:23.051Z,80.25
2018-09-23T14:11:51.434Z,79.64
2018-09-23T14:14:19.751Z,79.57
2018-09-23T14:16:48.224Z,79.27
2018-09-23T14:19:16.528Z,79.92
2018-09-23T14:21:44.808Z,79.62
2018-09-23T14:24:13.212Z,78.56
2018-09-23T14:26:41.536Z,78.88
2018-09-23T14:29:09.877Z,79.91
2018-09-23T14:31:38.240Z,78.60
2018-09-23T14:34:06.639Z,79.54
2018-09-23T14:36:39.212Z,78.99
2018-09-23T14:39:09.413Z,78.50
2018-09-23T14:41:37.959Z,79.62
2018-09-23T14:44:06.313Z,79.17
2018-09-23T14:46:34.683Z,78.56
2018-09-23T14:49:03.036Z,79.23
2018-09-23T14:51:31.282Z,79.24
2018-09-23T14:53:59.682Z,79.35
2018-09-23T14:56:28.103Z,79.72
2018-09-23T14:58:56.451Z,79.03
2018-09-23T15:01:24.742Z,78.92
2018-09-23T15:03:53.102Z,79.64
2018-09-23T15:06:21.452Z,79.42
2018-09-23T15:08:49.722Z,77.89
2018-09-23T15:11:18.231Z,77.95
2018-09-23T15:13:46.523Z,78.56
2018-09-23T15:16:14.786Z,77.29
2018-09-23T15:18:43.056Z,77.74
2018-09-23T15:21:11.350Z,77.94
2018-09-23T15:23:39.653Z,77.16
2018-09-23T15:26:07.951Z,77.35
2018-09-23T15:28:36.274Z,77.47
2018-09-23T15:31:04.548Z,76.71
2018-09-23T15:33:32.825Z,77.10
2018-09-23T15:36:01.255Z,76.82
2018-09-23T15:38:29.630Z,77.57
2018-09-23T15:40:57.878Z,76.04
2018-09-23T15:43:26.218Z,76.16
2018-09-23T15:45:54.498Z,75.58
2018-09-23T15:48:22.877Z,75.76
2018-09-23T15:50:51.164Z,76.22
2018-09-23T15:53:19.456Z,76.21
2018-09-23T15:55:47.766Z,76.33
2018-09-23T15:58:15.993Z,76.62
2018-09-23T16:00:44.249Z,76.79
2018-09-23T16:03:12.540Z,76.03
2018-09-23T16:05:40.830Z,76.75
2018-09-23T16:08:09.186Z,76.74
2018-09-23T16:10:37.418Z,75.67
2018-09-23T16:13:05.739Z,76.11
2018-09-23T16:15:34.066Z,76.39
2018-09-23T16:18:02.348Z,76.58
2018-09-23T16:20:30.760Z,76.61
2018-09-23T16:22:59.003Z,75.10
2018-09-23T16:25:27.336Z,75.59
2018-09-23T16:27:55.749Z,75.90
2018-09-23T16:30:24.122Z,76.34
2018-09-23T16:32:52.386Z,77.12
2018-09-23T16:35:20.643Z,76.07
2018-09-23T16:37:48.973Z,76.97
2018-09-23T16:40:17.202Z,76.62
2018-09-23T16:42:45.582Z,76.52
2018-09-23T16:45:13.964Z,75.75
2018-09-23T16:47:42.271Z,75.92
2018-09-23T16:50:10.532Z,75.84
2018-09-23T16:52:38.877Z,74.38
2018-09-23T16:55:13.714Z,73.90
2018-09-23T16:57:42.175Z,74.52
2018-09-23T17:00:10.476Z,74.62
2018-09-23T17:02:38.741Z,74.80
2018-09-23T17:05:07.004Z,75.81
2018-09-23T17:07:35.402Z,76.17
2018-09-23T17:10:03.714Z,75.58
2018-09-23T17:12:32.016Z,74.85
2018-09-23T17:15:00.286Z,75.17
2018-09-23T17:17:28.557Z,75.86
2018-09-23T17:19:56.897Z,76.21
2018-09-23T17:22:26.190Z,75.12
2018-09-23T17:24:54.497Z,75.41
2018-09-23T17:27:22.804Z,76.14
2018-09-23T17:29:51.080Z,76.36
2018-09-23T17:32:19.337Z,77.48
2018-09-23T17:34:47.724Z,77.29
2018-09-23T17:37:15.996Z,77.51
2018-09-23T17:39:44.285Z,77.87
2018-09-23T17:42:12.597Z,77.47
2018-09-23T17:44:40.952Z,78.73
2018-09-23T17:47:09.292Z,77.92
2018-09-23T17:49:37.617Z,77.45
2018-09-23T17:52:05.886Z,78.00
2018-09-23T17:54:34.232Z,77.60
2018-09-23T17:57:02.504Z,78.29
2018-09-23T17:59:31.210Z,78.49
2018-09-23T18:01:59.664Z,78.06
2018-09-23T18:04:27.954Z,78.18
2018-09-23T18:06:56.297Z,78.99
2018-09-23T18:09:24.735Z,78.74
2018-09-23T18:11:52.983Z,78.10
2018-09-23T18:14:21.361Z,77.92
2018-09-23T18:16:49.697Z,78.76
2018-09-23T18:19:18.026Z,79.02
2018-09-23T18:21:46.362Z,78.87
2018-09-23T18:24:14.576Z,79.64
2018-09-23T18:26:43.574Z,79.63
2018-09-23T18:29:11.941Z,78.40
2018-09-23T18:31:40.223Z,79.84
2018-09-23T18:34:08.549Z,78.36
2018-09-23T18:36:36.814Z,79.38
2018-09-23T18:39:07.884Z,80.19
2018-09-23T18:41:36.271Z,80.43
2018-09-23T18:44:04.522Z,79.79
2018-09-23T18:46:32.795Z,78.98
2018-09-23T18:49:01.969Z,79.42
2018-09-23T18:51:30.253Z,79.72
2018-09-23T18:54:03.745Z,79.29
2018-09-23T18:56:31.992Z,79.34
2018-09-23T18:59:00.408Z,79.46
2018-09-23T19:01:28.758Z,79.92
2018-09-23T19:03:56.993Z,80.15
2018-09-23T19:06:25.257Z,81.12
2018-09-23T19:08:53.514Z,81.09
2018-09-23T19:11:21.760Z,80.92
2018-09-23T19:13:52.995Z,80.51
2018-09-23T19:16:26.604Z,80.75
2018-09-23T19:18:56.058Z,80.89
2018-09-23T19:21:25.128Z,81.14
2018-09-23T19:23:53.538Z,80.38
2018-09-23T19:26:22.092Z,80.50
2018-09-23T19:28:50.342Z,81.12
2018-09-23T19:31:18.671Z,79.62
2018-09-23T19:33:46.934Z,78.91
2018-09-23T19:36:15.251Z,79.96
2018-09-23T19:38:43.541Z,79.65
2018-09-23T19:41:11.793Z,80.37
2018-09-23T19:43:40.049Z,80.39
2018-09-23T19:46:08.364Z,80.47
2018-09-23T19:48:36.661Z,79.46
2018-09-23T19:51:05.060Z,80.39
2018-09-23T19:53:33.321Z,80.17
2018-09-23T19:56:01.603Z,79.93
2018-09-23T19:58:29.936Z,79.22
2018-09-23T20:00:58.363Z,79.47
2018-09-23T20:03:26.626Z,80.30
2018-09-23T20:05:54.900Z,79.50
2018-09-23T20:08:24.068Z,79.16
2018-09-23T20:10:52.373Z,80.55
2018-09-23T20:13:20.746Z,79.08
2018-09-23T20:15:49.296Z,79.42
2018-09-23T20:18:17.537Z,79.83
2018-09-23T20:20:45.799Z,79.81
2018-09-23T20:23:14.096Z,79.23
2018-09-23T20:25:42.350Z,80.24
2018-09-23T20:28:10.687Z,80.64
2018-09-23T20:30:39.080Z,80.20
2018-09-23T20:33:07.480Z,79.92
2018-09-23T20:35:35.729Z,79.03
2018-09-23T20:38:03.972Z,78.76
2018-09-23T20:40:32.292Z,79.91
2018-09-23T20:43:00.616Z,79.56
2018-09-23T20:45:28.870Z,79.63
2018-09-23T20:47:57.145Z,80.14
2018-09-23T20:50:25.630Z,80.15
2018-09-23T20:52:54.008Z,79.25
2018-09-23T20:55:22.302Z,79.65
2018-09-23T20:57:50.668Z,79.41
2018-09-23T21:00:18.936Z,80.35
2018-09-23T21:02:47.418Z,79.77
2018-09-23T21:05:15.683Z,79.50
2018-09-23T21:07:44.073Z,78.92
2018-09-23T21:10:12.404Z,79.01
2018-09-23T21:12:40.668Z,78.97
2018-09-23T21:15:09.675Z,78.94
2018-09-23T21:17:38.103Z,80.19
2018-09-23T21:20:06.782Z,79.58
2018-09-23T21:22:35.060Z,78.85
2018-09-23T21:25:03.336Z,79.91
2018-09-23T21:27:31.621Z,79.59
2018-09-23T21:29:59.884Z,79.91
2018-09-23T21:32:28.138Z,80.43
2018-09-23T21:34:56.547Z,80.56
2018-09-23T21:37:24.822Z,79.74
2018-09-23T21:39:53.180Z,80.56
2018-09-23T21:42:21.425Z,79.30
2018-09-23T21:44:49.696Z,80.82
2018-09-23T21:47:17.986Z,79.75
2018-09-23T21:49:46.321Z,78.63
2018-09-23T21:52:15.512Z,79.27
2018-09-23T21:54:43.948Z,79.86
2018-09-23T21:57:12.172Z,79.96
2018-09-23T21:59:40.425Z,79.57
2018-09-23T22:02:08.730Z,78.43
2018-09-23T22:04:37.118Z,80.05
2018-09-23T22:07:05.455Z,78.84
2018-09-23T22:09:33.742Z,78.95
2018-09-23T22:12:02.010Z,79.71
2018-09-23T22:14:30.341Z,78.91
2018-09-23T22:16:59.536Z,79.27
2018-09-23T22:19:27.846Z,79.08
2018-09-23T22:21:56.171Z,78.51
2018-09-23T22:24:24.410Z,79.37
2018-09-23T22:26:52.711Z,79.70
2018-09-23T22:29:21.014Z,79.26
2018-09-23T22:31:49.261Z,78.80
2018-09-23T22:34:17.524Z,79.60
2018-09-23T22:36:45.798Z,79.26
2018-09-23T22:39:14.096Z,79.99
2018-09-23T22:41:42.344Z,78.73
2018-09-23T22:44:10.654Z,79.48
2018-09-23T22:46:38.902Z,79.01
2018-09-23T22:49:07.185Z,79.78
2018-09-23T22:51:35.456Z,79.05
2018-09-23T22:54:03.745Z,79.33
2018-09-23T22:56:32.033Z,79.69
2018-09-23T22:59:00.261Z,79.27
2018-09-23T23:01:28.594Z,79.37
2018-09-23T23:03:56.859Z,80.58
2018-09-23T23:06:25.149Z,80.31
2018-09-23T23:08:53.428Z,79.68
2018-09-23T23:11:21.753Z,79.97
2018-09-23T23:13:49.985Z,79.36
2018-09-23T23:16:18.240Z,78.79
2018-09-23T23:18:46.534Z,78.97
2018-09-23T23:21:14.841Z,78.48
2018-09-23T23:23:43.403Z,79.20
2018-09-23T23:26:11.645Z,79.29
2018-09-23T23:28:39.902Z,78.75
2018-09-23T23:31:08.181Z,78.13
2018-09-23T23:33:36.460Z,78.34
2018-09-23T23:36:04.849Z,78.61
2018-09-23T23:38:33.166Z,77.96
2018-09-23T23:41:01.407Z,78.63
2018-09-23T23:43:29.710Z,78.56
2018-09-23T23:45:58.031Z,78.20
2018-09-23T23:48:26.357Z,78.58
2018-09-23T23:50:54.630Z,77.83
2018-09-23T23:53:22.841Z,78.90
2018-09-23T23:55:51.111Z,78.87
2018-09-23T23:58:19.565Z,78.48
